LGR888 HEAZ-HEAT
Flight info
| Callsign | LGR888 |
|---|---|
| Flight time | N/A |
| Altitude | 4000 |
| Route | CVO W8 AST |
| Aircraft | R66/L-SFG/C |
Departure
| Time | N/A |
|---|---|
| Airport | Almaza Air Force Base (HEAZ) |
Arrival
| Time | 2026-05-09 09:27 |
|---|---|
| Airport | Asyut International Airport (HEAT) |
| Time | Latitude | Longitude | Altitude | Speed | Heading |
|---|---|---|---|---|---|
| 2026-05-09 08:10 | 29.47861 | 31.31913 | 1454 ft | 133 kts | 178° |
| 2026-05-09 08:10 | 29.46930 | 31.31813 | 1458 ft | 133 kts | 178° |
| 2026-05-09 08:11 | 29.46009 | 31.31714 | 1456 ft | 134 kts | 178° |
| 2026-05-09 08:11 | 29.45074 | 31.31611 | 1457 ft | 133 kts | 177° |
| 2026-05-09 08:11 | 29.44138 | 31.31490 | 1452 ft | 134 kts | 180° |
| 2026-05-09 08:11 | 29.43216 | 31.31361 | 1455 ft | 134 kts | 179° |
| 2026-05-09 08:12 | 29.41350 | 31.31119 | 1454 ft | 134 kts | 178° |
| 2026-05-09 08:12 | 29.40424 | 31.31004 | 1443 ft | 133 kts | 178° |
| 2026-05-09 08:12 | 29.39513 | 31.30895 | 1445 ft | 130 kts | 178° |
| 2026-05-09 08:13 | 29.38621 | 31.30791 | 1445 ft | 129 kts | 178° |
| 2026-05-09 08:13 | 29.37730 | 31.30689 | 1445 ft | 128 kts | 178° |
| 2026-05-09 08:13 | 29.36833 | 31.30583 | 1447 ft | 128 kts | 178° |
| 2026-05-09 08:13 | 29.35949 | 31.30480 | 1447 ft | 128 kts | 177° |
| 2026-05-09 08:14 | 29.35059 | 31.30379 | 1428 ft | 131 kts | 177° |
| 2026-05-09 08:14 | 29.34124 | 31.30276 | 1344 ft | 135 kts | 177° |
| 2026-05-09 08:14 | 29.33178 | 31.30168 | 1267 ft | 136 kts | 177° |
| 2026-05-09 08:14 | 29.32233 | 31.30063 | 1188 ft | 136 kts | 177° |
| 2026-05-09 08:15 | 29.31285 | 31.29957 | 1105 ft | 137 kts | 177° |
| 2026-05-09 08:15 | 29.30329 | 31.29849 | 1026 ft | 136 kts | 178° |
| 2026-05-09 08:15 | 29.29389 | 31.29742 | 970 ft | 135 kts | 178° |
| 2026-05-09 08:15 | 29.28465 | 31.29514 | 931 ft | 131 kts | 189° |
| 2026-05-09 08:16 | 29.27610 | 31.29187 | 940 ft | 129 kts | 194° |
| 2026-05-09 08:16 | 29.26761 | 31.28842 | 947 ft | 128 kts | 194° |
| 2026-05-09 08:16 | 29.25929 | 31.28449 | 951 ft | 129 kts | 201° |
| 2026-05-09 08:16 | 29.25137 | 31.27941 | 944 ft | 131 kts | 210° |
| 2026-05-09 08:17 | 29.24361 | 31.27371 | 940 ft | 131 kts | 210° |
| 2026-05-09 08:17 | 29.23601 | 31.26808 | 946 ft | 131 kts | 210° |
| 2026-05-09 08:17 | 29.22830 | 31.26234 | 940 ft | 132 kts | 210° |
| 2026-05-09 08:17 | 29.22057 | 31.25655 | 930 ft | 131 kts | 210° |
| 2026-05-09 08:18 | 29.21287 | 31.25085 | 935 ft | 131 kts | 210° |
| 2026-05-09 08:18 | 29.20512 | 31.24519 | 939 ft | 131 kts | 210° |
| 2026-05-09 08:18 | 29.19748 | 31.23961 | 944 ft | 131 kts | 210° |
| 2026-05-09 08:18 | 29.18969 | 31.23401 | 928 ft | 132 kts | 210° |
| 2026-05-09 08:19 | 29.18190 | 31.22841 | 935 ft | 131 kts | 210° |
| 2026-05-09 08:19 | 29.17412 | 31.22285 | 947 ft | 131 kts | 210° |
| 2026-05-09 08:19 | 29.16666 | 31.21696 | 947 ft | 132 kts | 214° |
| 2026-05-09 08:19 | 29.15915 | 31.21081 | 943 ft | 132 kts | 214° |
| 2026-05-09 08:20 | 29.15159 | 31.20462 | 942 ft | 131 kts | 213° |
| 2026-05-09 08:20 | 29.14423 | 31.19848 | 943 ft | 131 kts | 214° |
| 2026-05-09 08:20 | 29.13683 | 31.19227 | 933 ft | 131 kts | 214° |
| 2026-05-09 08:20 | 29.12947 | 31.18608 | 943 ft | 130 kts | 214° |
| 2026-05-09 08:21 | 29.12214 | 31.18007 | 941 ft | 131 kts | 214° |
| 2026-05-09 08:21 | 29.11475 | 31.17399 | 941 ft | 130 kts | 214° |
| 2026-05-09 08:21 | 29.10727 | 31.16790 | 944 ft | 131 kts | 214° |
| 2026-05-09 08:21 | 29.09984 | 31.16191 | 942 ft | 131 kts | 213° |
| 2026-05-09 08:22 | 29.09233 | 31.15581 | 949 ft | 131 kts | 213° |
| 2026-05-09 08:22 | 29.08493 | 31.14978 | 945 ft | 132 kts | 214° |
| 2026-05-09 08:22 | 29.07725 | 31.14389 | 946 ft | 131 kts | 210° |
| 2026-05-09 08:22 | 29.06936 | 31.13852 | 947 ft | 131 kts | 207° |
| 2026-05-09 08:23 | 29.06134 | 31.13336 | 949 ft | 132 kts | 207° |
| 2026-05-09 08:23 | 29.05334 | 31.12821 | 943 ft | 132 kts | 207° |
| 2026-05-09 08:23 | 29.04523 | 31.12314 | 946 ft | 132 kts | 204° |
| 2026-05-09 08:23 | 29.03697 | 31.11827 | 946 ft | 132 kts | 205° |
| 2026-05-09 08:24 | 29.02875 | 31.11382 | 941 ft | 132 kts | 201° |
| 2026-05-09 08:24 | 29.02017 | 31.10965 | 938 ft | 132 kts | 197° |
| 2026-05-09 08:24 | 29.01155 | 31.10620 | 938 ft | 132 kts | 195° |
| 2026-05-09 08:24 | 29.00264 | 31.10334 | 927 ft | 132 kts | 191° |
| 2026-05-09 08:25 | 28.99370 | 31.10052 | 928 ft | 132 kts | 191° |
| 2026-05-09 08:25 | 28.98465 | 31.09798 | 928 ft | 132 kts | 186° |
| 2026-05-09 08:25 | 28.97573 | 31.09592 | 932 ft | 132 kts | 186° |
| 2026-05-09 08:25 | 28.96659 | 31.09379 | 918 ft | 132 kts | 186° |
| 2026-05-09 08:26 | 28.95766 | 31.09172 | 925 ft | 131 kts | 186° |
| 2026-05-09 08:26 | 28.94865 | 31.08965 | 932 ft | 131 kts | 186° |
| 2026-05-09 08:26 | 28.93957 | 31.08755 | 929 ft | 132 kts | 186° |
| 2026-05-09 08:26 | 28.93059 | 31.08548 | 931 ft | 132 kts | 186° |
| 2026-05-09 08:27 | 28.92144 | 31.08346 | 923 ft | 132 kts | 186° |
| 2026-05-09 08:27 | 28.91248 | 31.08147 | 979 ft | 129 kts | 186° |
| 2026-05-09 08:27 | 28.90368 | 31.07951 | 1020 ft | 128 kts | 186° |
| 2026-05-09 08:27 | 28.89498 | 31.07762 | 1069 ft | 128 kts | 186° |
| 2026-05-09 08:28 | 28.88621 | 31.07570 | 1126 ft | 128 kts | 186° |
| 2026-05-09 08:28 | 28.87734 | 31.07371 | 1181 ft | 128 kts | 186° |
| 2026-05-09 08:28 | 28.86863 | 31.07177 | 1241 ft | 128 kts | 186° |
| 2026-05-09 08:28 | 28.85972 | 31.06973 | 1289 ft | 128 kts | 185° |
| 2026-05-09 08:29 | 28.85101 | 31.06780 | 1331 ft | 128 kts | 185° |
| 2026-05-09 08:29 | 28.84214 | 31.06591 | 1371 ft | 128 kts | 185° |
| 2026-05-09 08:29 | 28.83347 | 31.06406 | 1409 ft | 128 kts | 185° |
| 2026-05-09 08:29 | 28.82461 | 31.06217 | 1447 ft | 128 kts | 185° |
| 2026-05-09 08:30 | 28.81579 | 31.06027 | 1488 ft | 128 kts | 185° |
| 2026-05-09 08:30 | 28.80697 | 31.05837 | 1539 ft | 128 kts | 185° |
| 2026-05-09 08:30 | 28.79826 | 31.05641 | 1581 ft | 129 kts | 185° |
| 2026-05-09 08:30 | 28.78943 | 31.05438 | 1627 ft | 129 kts | 186° |
| 2026-05-09 08:31 | 28.78050 | 31.05239 | 1677 ft | 129 kts | 185° |
| 2026-05-09 08:31 | 28.77163 | 31.05044 | 1727 ft | 129 kts | 186° |
| 2026-05-09 08:31 | 28.76271 | 31.04850 | 1776 ft | 129 kts | 184° |
| 2026-05-09 08:31 | 28.75386 | 31.04652 | 1816 ft | 129 kts | 185° |
| 2026-05-09 08:32 | 28.74504 | 31.04461 | 1871 ft | 128 kts | 185° |
| 2026-05-09 08:32 | 28.73630 | 31.04269 | 1912 ft | 128 kts | 185° |
| 2026-05-09 08:32 | 28.71822 | 31.03881 | 1915 ft | 132 kts | 185° |
| 2026-05-09 08:33 | 28.70917 | 31.03687 | 1929 ft | 133 kts | 185° |
| 2026-05-09 08:33 | 28.69997 | 31.03494 | 1927 ft | 134 kts | 185° |
| 2026-05-09 08:33 | 28.69071 | 31.03295 | 1926 ft | 134 kts | 185° |
| 2026-05-09 08:33 | 28.68149 | 31.03095 | 1929 ft | 134 kts | 186° |
| 2026-05-09 08:34 | 28.67225 | 31.02899 | 1939 ft | 135 kts | 185° |
| 2026-05-09 08:34 | 28.66292 | 31.02698 | 1940 ft | 136 kts | 185° |
| 2026-05-09 08:34 | 28.65366 | 31.02500 | 1931 ft | 135 kts | 185° |
| 2026-05-09 08:34 | 28.64437 | 31.02297 | 1931 ft | 135 kts | 185° |
| 2026-05-09 08:35 | 28.63511 | 31.02097 | 1936 ft | 135 kts | 186° |
| 2026-05-09 08:35 | 28.62580 | 31.01897 | 1935 ft | 135 kts | 185° |
| 2026-05-09 08:35 | 28.61652 | 31.01696 | 1953 ft | 133 kts | 186° |
| 2026-05-09 08:35 | 28.60733 | 31.01496 | 1960 ft | 134 kts | 185° |
| 2026-05-09 08:36 | 28.59818 | 31.01300 | 1953 ft | 134 kts | 185° |
| 2026-05-09 08:36 | 28.58892 | 31.01104 | 1958 ft | 135 kts | 186° |
| 2026-05-09 08:36 | 28.57958 | 31.00905 | 1963 ft | 136 kts | 185° |
| 2026-05-09 08:36 | 28.57070 | 31.00718 | 2095 ft | 127 kts | 185° |
| 2026-05-09 08:37 | 28.56169 | 31.00532 | 2092 ft | 133 kts | 185° |
| 2026-05-09 08:37 | 28.55261 | 31.00349 | 2052 ft | 135 kts | 185° |
| 2026-05-09 08:37 | 28.54311 | 31.00155 | 1987 ft | 138 kts | 185° |
| 2026-05-09 08:37 | 28.53365 | 30.99969 | 1978 ft | 136 kts | 184° |
| 2026-05-09 08:38 | 28.52431 | 30.99779 | 1979 ft | 135 kts | 185° |
| 2026-05-09 08:38 | 28.51505 | 30.99593 | 1983 ft | 135 kts | 185° |
| 2026-05-09 08:38 | 28.50586 | 30.99407 | 1980 ft | 135 kts | 185° |
| 2026-05-09 08:38 | 28.49649 | 30.99215 | 1978 ft | 135 kts | 185° |
| 2026-05-09 08:39 | 28.48730 | 30.99056 | 1978 ft | 134 kts | 181° |
| 2026-05-09 08:39 | 28.47789 | 30.98921 | 1976 ft | 134 kts | 181° |
| 2026-05-09 08:39 | 28.46869 | 30.98783 | 1983 ft | 134 kts | 181° |
| 2026-05-09 08:39 | 28.45926 | 30.98642 | 1979 ft | 135 kts | 181° |
| 2026-05-09 08:40 | 28.44989 | 30.98503 | 1978 ft | 135 kts | 181° |
| 2026-05-09 08:40 | 28.44060 | 30.98374 | 1978 ft | 134 kts | 180° |
| 2026-05-09 08:40 | 28.43127 | 30.98294 | 1983 ft | 135 kts | 178° |
| 2026-05-09 08:40 | 28.42177 | 30.98218 | 1971 ft | 135 kts | 178° |
| 2026-05-09 08:41 | 28.41249 | 30.98141 | 1975 ft | 134 kts | 178° |
| 2026-05-09 08:41 | 28.40315 | 30.98061 | 1979 ft | 134 kts | 178° |
| 2026-05-09 08:41 | 28.39376 | 30.97980 | 1980 ft | 134 kts | 178° |
| 2026-05-09 08:41 | 28.38440 | 30.97896 | 1977 ft | 134 kts | 178° |
| 2026-05-09 08:42 | 28.37514 | 30.97808 | 1984 ft | 134 kts | 178° |
| 2026-05-09 08:42 | 28.36577 | 30.97720 | 1982 ft | 134 kts | 178° |
| 2026-05-09 08:42 | 28.35640 | 30.97699 | 1980 ft | 133 kts | 171° |
| 2026-05-09 08:42 | 28.34704 | 30.97712 | 1978 ft | 134 kts | 171° |
| 2026-05-09 08:43 | 28.33766 | 30.97728 | 1980 ft | 134 kts | 171° |
| 2026-05-09 08:43 | 28.32819 | 30.97752 | 1980 ft | 134 kts | 171° |
| 2026-05-09 08:43 | 28.31891 | 30.97779 | 1974 ft | 134 kts | 171° |
| 2026-05-09 08:43 | 28.30948 | 30.97810 | 1976 ft | 133 kts | 171° |
| 2026-05-09 08:44 | 28.30018 | 30.97841 | 1978 ft | 134 kts | 171° |
| 2026-05-09 08:44 | 28.29090 | 30.97871 | 1975 ft | 133 kts | 171° |
| 2026-05-09 08:44 | 28.28152 | 30.97903 | 1977 ft | 133 kts | 171° |
| 2026-05-09 08:44 | 28.27227 | 30.97934 | 1984 ft | 133 kts | 171° |
| 2026-05-09 08:45 | 28.26296 | 30.97957 | 1982 ft | 134 kts | 171° |
| 2026-05-09 08:45 | 28.25368 | 30.97983 | 1979 ft | 133 kts | 171° |
| 2026-05-09 08:45 | 28.24439 | 30.98004 | 1981 ft | 133 kts | 171° |
| 2026-05-09 08:45 | 28.23503 | 30.98024 | 1985 ft | 132 kts | 171° |
| 2026-05-09 08:46 | 28.22577 | 30.98049 | 1983 ft | 133 kts | 171° |
| 2026-05-09 08:46 | 28.21651 | 30.98076 | 1986 ft | 133 kts | 171° |
| 2026-05-09 08:46 | 28.20725 | 30.98107 | 1982 ft | 133 kts | 171° |
| 2026-05-09 08:46 | 28.19790 | 30.98144 | 1981 ft | 133 kts | 171° |
| 2026-05-09 08:47 | 28.18864 | 30.98184 | 1981 ft | 133 kts | 171° |
| 2026-05-09 08:47 | 28.17936 | 30.98220 | 1979 ft | 133 kts | 171° |
| 2026-05-09 08:47 | 28.17000 | 30.98258 | 1982 ft | 134 kts | 171° |
| 2026-05-09 08:47 | 28.16062 | 30.98290 | 1976 ft | 134 kts | 171° |
| 2026-05-09 08:48 | 28.15140 | 30.98320 | 1986 ft | 133 kts | 171° |
| 2026-05-09 08:48 | 28.14210 | 30.98350 | 1983 ft | 133 kts | 171° |
| 2026-05-09 08:48 | 28.13282 | 30.98381 | 1985 ft | 133 kts | 172° |
| 2026-05-09 08:48 | 28.12349 | 30.98409 | 1988 ft | 133 kts | 171° |
| 2026-05-09 08:49 | 28.11416 | 30.98440 | 1987 ft | 133 kts | 171° |
| 2026-05-09 08:49 | 28.10484 | 30.98471 | 1985 ft | 133 kts | 171° |
| 2026-05-09 08:49 | 28.09549 | 30.98502 | 1986 ft | 133 kts | 171° |
| 2026-05-09 08:49 | 28.08628 | 30.98538 | 1987 ft | 133 kts | 171° |
| 2026-05-09 08:50 | 28.07692 | 30.98574 | 1993 ft | 133 kts | 171° |
| 2026-05-09 08:50 | 28.06751 | 30.98606 | 1990 ft | 134 kts | 171° |
| 2026-05-09 08:50 | 28.05817 | 30.98640 | 1982 ft | 134 kts | 171° |
| 2026-05-09 08:50 | 28.04875 | 30.98675 | 1983 ft | 135 kts | 171° |
| 2026-05-09 08:51 | 28.03936 | 30.98712 | 1985 ft | 134 kts | 171° |
| 2026-05-09 08:51 | 28.02992 | 30.98749 | 1989 ft | 134 kts | 172° |
| 2026-05-09 08:51 | 28.02070 | 30.98787 | 1988 ft | 133 kts | 172° |
| 2026-05-09 08:51 | 28.01142 | 30.98824 | 1999 ft | 133 kts | 171° |
| 2026-05-09 08:52 | 28.00213 | 30.98862 | 1990 ft | 132 kts | 171° |
| 2026-05-09 08:52 | 27.99289 | 30.98902 | 1989 ft | 133 kts | 171° |
| 2026-05-09 08:52 | 27.98357 | 30.98941 | 1994 ft | 132 kts | 171° |
| 2026-05-09 08:52 | 27.97435 | 30.98980 | 1999 ft | 133 kts | 171° |
| 2026-05-09 08:53 | 27.96506 | 30.99018 | 1999 ft | 133 kts | 171° |
| 2026-05-09 08:53 | 27.95571 | 30.99056 | 2008 ft | 134 kts | 171° |
| 2026-05-09 08:53 | 27.94628 | 30.99097 | 1999 ft | 134 kts | 171° |
| 2026-05-09 08:53 | 27.93692 | 30.99136 | 1999 ft | 134 kts | 171° |
| 2026-05-09 08:54 | 27.92761 | 30.99177 | 1989 ft | 133 kts | 171° |
| 2026-05-09 08:54 | 27.91834 | 30.99221 | 1994 ft | 132 kts | 171° |
| 2026-05-09 08:54 | 27.90914 | 30.99265 | 2003 ft | 133 kts | 171° |
| 2026-05-09 08:54 | 27.89980 | 30.99306 | 2009 ft | 134 kts | 171° |
| 2026-05-09 08:55 | 27.89055 | 30.99353 | 2005 ft | 133 kts | 171° |
| 2026-05-09 08:55 | 27.88119 | 30.99401 | 2001 ft | 134 kts | 171° |
| 2026-05-09 08:55 | 27.87175 | 30.99450 | 2002 ft | 136 kts | 171° |
| 2026-05-09 08:55 | 27.86228 | 30.99503 | 1999 ft | 138 kts | 171° |
| 2026-05-09 08:56 | 27.85256 | 30.99561 | 1998 ft | 138 kts | 171° |
| 2026-05-09 08:56 | 27.84296 | 30.99618 | 2002 ft | 139 kts | 171° |
| 2026-05-09 08:56 | 27.83326 | 30.99673 | 2003 ft | 139 kts | 172° |
| 2026-05-09 08:56 | 27.82351 | 30.99728 | 2000 ft | 139 kts | 171° |
| 2026-05-09 08:57 | 27.81384 | 30.99781 | 2002 ft | 139 kts | 171° |
| 2026-05-09 08:57 | 27.80411 | 30.99837 | 2002 ft | 139 kts | 172° |
| 2026-05-09 08:57 | 27.79437 | 30.99894 | 2006 ft | 139 kts | 171° |
| 2026-05-09 08:57 | 27.78458 | 30.99952 | 1996 ft | 140 kts | 171° |
| 2026-05-09 08:58 | 27.77488 | 31.00007 | 2003 ft | 139 kts | 171° |
| 2026-05-09 08:58 | 27.76513 | 31.00059 | 2003 ft | 139 kts | 171° |
| 2026-05-09 08:58 | 27.75555 | 31.00105 | 2000 ft | 139 kts | 172° |
| 2026-05-09 08:58 | 27.74578 | 31.00150 | 1998 ft | 139 kts | 171° |
| 2026-05-09 08:59 | 27.73605 | 31.00200 | 1999 ft | 139 kts | 171° |
| 2026-05-09 08:59 | 27.72626 | 31.00249 | 1992 ft | 140 kts | 171° |
| 2026-05-09 08:59 | 27.71664 | 31.00302 | 1989 ft | 139 kts | 171° |
| 2026-05-09 08:59 | 27.70688 | 31.00357 | 1983 ft | 139 kts | 171° |
| 2026-05-09 09:00 | 27.69717 | 31.00411 | 1984 ft | 139 kts | 172° |
| 2026-05-09 09:00 | 27.68742 | 31.00470 | 1978 ft | 139 kts | 171° |
| 2026-05-09 09:00 | 27.67778 | 31.00526 | 1984 ft | 139 kts | 171° |
| 2026-05-09 09:00 | 27.66812 | 31.00580 | 1985 ft | 139 kts | 171° |
| 2026-05-09 09:01 | 27.65840 | 31.00636 | 1980 ft | 139 kts | 171° |
| 2026-05-09 09:01 | 27.64864 | 31.00695 | 1978 ft | 139 kts | 171° |
| 2026-05-09 09:01 | 27.63901 | 31.00753 | 1979 ft | 139 kts | 171° |
| 2026-05-09 09:01 | 27.62924 | 31.00811 | 1980 ft | 139 kts | 171° |
| 2026-05-09 09:02 | 27.61962 | 31.00867 | 1982 ft | 139 kts | 171° |
| 2026-05-09 09:02 | 27.60985 | 31.00924 | 1979 ft | 139 kts | 171° |
| 2026-05-09 09:02 | 27.60017 | 31.00988 | 1986 ft | 139 kts | 171° |
| 2026-05-09 09:02 | 27.59047 | 31.01052 | 1977 ft | 138 kts | 171° |
| 2026-05-09 09:03 | 27.58084 | 31.01118 | 1983 ft | 138 kts | 171° |
| 2026-05-09 09:03 | 27.57132 | 31.01186 | 1983 ft | 138 kts | 171° |
| 2026-05-09 09:03 | 27.56172 | 31.01254 | 1987 ft | 137 kts | 171° |
| 2026-05-09 09:03 | 27.55253 | 31.01487 | 1988 ft | 131 kts | 142° |
| 2026-05-09 09:04 | 27.54518 | 31.02078 | 1990 ft | 130 kts | 132° |
| 2026-05-09 09:04 | 27.53797 | 31.02697 | 1991 ft | 130 kts | 132° |
| 2026-05-09 09:04 | 27.53083 | 31.03315 | 1992 ft | 130 kts | 132° |
| 2026-05-09 09:04 | 27.52354 | 31.03945 | 1988 ft | 130 kts | 133° |
| 2026-05-09 09:05 | 27.51644 | 31.04561 | 1983 ft | 130 kts | 132° |
| 2026-05-09 09:05 | 27.50877 | 31.05122 | 1983 ft | 133 kts | 143° |
| 2026-05-09 09:05 | 27.49997 | 31.05502 | 1985 ft | 135 kts | 156° |
| 2026-05-09 09:05 | 27.49081 | 31.05753 | 1984 ft | 136 kts | 162° |
| 2026-05-09 09:06 | 27.48143 | 31.05942 | 1984 ft | 136 kts | 165° |
| 2026-05-09 09:06 | 27.47195 | 31.06099 | 1981 ft | 136 kts | 167° |
| 2026-05-09 09:06 | 27.46243 | 31.06242 | 1987 ft | 137 kts | 167° |
| 2026-05-09 09:06 | 27.45293 | 31.06380 | 1986 ft | 138 kts | 167° |
| 2026-05-09 09:07 | 27.44342 | 31.06513 | 1982 ft | 138 kts | 167° |
| 2026-05-09 09:07 | 27.43375 | 31.06651 | 1979 ft | 138 kts | 167° |
| 2026-05-09 09:07 | 27.42422 | 31.06784 | 1972 ft | 137 kts | 167° |
| 2026-05-09 09:07 | 27.41469 | 31.06917 | 1971 ft | 137 kts | 167° |
| 2026-05-09 09:08 | 27.40525 | 31.07048 | 1970 ft | 137 kts | 167° |
| 2026-05-09 09:08 | 27.39572 | 31.07181 | 1977 ft | 137 kts | 167° |
| 2026-05-09 09:08 | 27.38619 | 31.07315 | 1981 ft | 137 kts | 168° |
| 2026-05-09 09:08 | 27.37671 | 31.07447 | 1969 ft | 137 kts | 168° |
| 2026-05-09 09:09 | 27.36724 | 31.07579 | 1978 ft | 135 kts | 168° |
| 2026-05-09 09:09 | 27.35791 | 31.07709 | 1964 ft | 135 kts | 168° |
| 2026-05-09 09:09 | 27.34863 | 31.07837 | 1965 ft | 133 kts | 168° |
| 2026-05-09 09:09 | 27.33937 | 31.07965 | 1965 ft | 133 kts | 167° |
| 2026-05-09 09:10 | 27.33007 | 31.08094 | 1972 ft | 134 kts | 167° |
| 2026-05-09 09:10 | 27.32071 | 31.08225 | 1976 ft | 134 kts | 168° |
| 2026-05-09 09:10 | 27.31148 | 31.08353 | 1977 ft | 134 kts | 168° |
| 2026-05-09 09:10 | 27.30214 | 31.08483 | 1978 ft | 133 kts | 168° |
| 2026-05-09 09:11 | 27.29292 | 31.08611 | 1975 ft | 133 kts | 168° |
| 2026-05-09 09:11 | 27.28369 | 31.08739 | 1971 ft | 133 kts | 168° |
| 2026-05-09 09:11 | 27.27434 | 31.08868 | 1974 ft | 134 kts | 168° |
| 2026-05-09 09:11 | 27.26502 | 31.08998 | 1979 ft | 134 kts | 168° |
| 2026-05-09 09:12 | 27.25573 | 31.09128 | 1974 ft | 134 kts | 168° |
| 2026-05-09 09:12 | 27.24646 | 31.09257 | 1979 ft | 134 kts | 168° |
| 2026-05-09 09:12 | 27.23716 | 31.09386 | 1979 ft | 134 kts | 168° |
| 2026-05-09 09:12 | 27.22788 | 31.09515 | 1980 ft | 134 kts | 169° |
| 2026-05-09 09:13 | 27.21859 | 31.09643 | 1979 ft | 134 kts | 169° |
| 2026-05-09 09:13 | 27.20928 | 31.09772 | 1978 ft | 133 kts | 169° |
| 2026-05-09 09:13 | 27.20005 | 31.09900 | 1983 ft | 134 kts | 169° |
| 2026-05-09 09:13 | 27.19076 | 31.10028 | 1983 ft | 134 kts | 169° |
| 2026-05-09 09:14 | 27.18135 | 31.10158 | 1987 ft | 135 kts | 168° |
| 2026-05-09 09:14 | 27.17208 | 31.10287 | 1988 ft | 135 kts | 169° |
| 2026-05-09 09:14 | 27.16268 | 31.10417 | 1987 ft | 135 kts | 168° |
| 2026-05-09 09:14 | 27.15329 | 31.10548 | 1986 ft | 135 kts | 168° |
| 2026-05-09 09:15 | 27.14402 | 31.10677 | 1990 ft | 134 kts | 168° |
| 2026-05-09 09:15 | 27.13467 | 31.10806 | 1984 ft | 134 kts | 168° |
| 2026-05-09 09:15 | 27.12536 | 31.10936 | 1992 ft | 134 kts | 168° |
| 2026-05-09 09:15 | 27.11616 | 31.11064 | 1982 ft | 134 kts | 169° |
| 2026-05-09 09:16 | 27.10676 | 31.11193 | 1984 ft | 133 kts | 169° |
| 2026-05-09 09:16 | 27.08822 | 31.11450 | 1978 ft | 134 kts | 169° |
| 2026-05-09 09:16 | 27.07898 | 31.11577 | 1979 ft | 133 kts | 169° |
| 2026-05-09 09:17 | 27.06978 | 31.11704 | 1989 ft | 134 kts | 169° |
| 2026-05-09 09:17 | 27.06036 | 31.11833 | 1984 ft | 134 kts | 168° |
| 2026-05-09 09:17 | 27.05107 | 31.11962 | 1981 ft | 135 kts | 168° |
| 2026-05-09 09:17 | 27.04183 | 31.12090 | 1973 ft | 132 kts | 167° |
| 2026-05-09 09:18 | 27.03277 | 31.12218 | 1965 ft | 130 kts | 167° |
| 2026-05-09 09:18 | 27.02375 | 31.12344 | 1938 ft | 131 kts | 168° |
| 2026-05-09 09:18 | 27.01464 | 31.12471 | 1894 ft | 129 kts | 167° |
| 2026-05-09 09:18 | 27.00591 | 31.12594 | 1847 ft | 123 kts | 166° |
| 2026-05-09 09:19 | 26.99760 | 31.12713 | 1810 ft | 117 kts | 167° |
| 2026-05-09 09:19 | 26.98949 | 31.12827 | 1740 ft | 118 kts | 167° |
| 2026-05-09 09:19 | 26.98122 | 31.12945 | 1640 ft | 120 kts | 167° |
| 2026-05-09 09:19 | 26.97279 | 31.13025 | 1505 ft | 124 kts | 179° |
| 2026-05-09 09:20 | 26.96468 | 31.12724 | 1314 ft | 122 kts | 210° |
| 2026-05-09 09:20 | 26.95904 | 31.12067 | 1162 ft | 110 kts | 242° |
| 2026-05-09 09:20 | 26.95747 | 31.11327 | 1140 ft | 88 kts | 275° |
| 2026-05-09 09:20 | 26.95918 | 31.10767 | 1148 ft | 68 kts | 308° |
| 2026-05-09 09:21 | 26.96268 | 31.10494 | 1159 ft | 56 kts | 342° |
| 2026-05-09 09:21 | 26.96650 | 31.10458 | 1182 ft | 56 kts | 353° |
| 2026-05-09 09:21 | 26.97051 | 31.10401 | 1187 ft | 60 kts | 337° |
| 2026-05-09 09:21 | 26.97436 | 31.10173 | 1183 ft | 65 kts | 329° |
| 2026-05-09 09:22 | 26.97816 | 31.09877 | 1185 ft | 67 kts | 323° |
| 2026-05-09 09:22 | 26.98176 | 31.09537 | 1187 ft | 68 kts | 319° |
| 2026-05-09 09:22 | 26.98526 | 31.09162 | 1184 ft | 69 kts | 317° |
| 2026-05-09 09:22 | 26.98862 | 31.08772 | 1184 ft | 69 kts | 315° |
| 2026-05-09 09:23 | 26.99188 | 31.08372 | 1188 ft | 69 kts | 314° |
| 2026-05-09 09:23 | 26.99514 | 31.07961 | 1182 ft | 70 kts | 313° |
| 2026-05-09 09:23 | 26.99829 | 31.07553 | 1185 ft | 69 kts | 313° |
| 2026-05-09 09:23 | 27.00148 | 31.07138 | 1187 ft | 69 kts | 313° |
| 2026-05-09 09:24 | 27.00462 | 31.06725 | 1185 ft | 70 kts | 313° |
| 2026-05-09 09:24 | 27.00777 | 31.06315 | 1221 ft | 66 kts | 315° |
| 2026-05-09 09:24 | 27.01086 | 31.05947 | 1263 ft | 63 kts | 317° |
| 2026-05-09 09:24 | 27.01368 | 31.05586 | 1315 ft | 62 kts | 313° |
| 2026-05-09 09:25 | 27.01647 | 31.05212 | 1346 ft | 61 kts | 313° |
| 2026-05-09 09:25 | 27.01943 | 31.04836 | 1302 ft | 67 kts | 314° |
| 2026-05-09 09:25 | 27.02241 | 31.04426 | 1274 ft | 69 kts | 309° |
| 2026-05-09 09:25 | 27.02542 | 31.03999 | 1208 ft | 69 kts | 310° |
| 2026-05-09 09:26 | 27.02846 | 31.03587 | 1121 ft | 69 kts | 311° |
| 2026-05-09 09:26 | 27.03167 | 31.03166 | 964 ft | 71 kts | 313° |
| 2026-05-09 09:26 | 27.03490 | 31.02760 | 886 ft | 69 kts | 308° |
| 2026-05-09 09:26 | 27.03762 | 31.02387 | 822 ft | 53 kts | 316° |
| 2026-05-09 09:27 | 27.03949 | 31.02133 | 801 ft | 32 kts | 323° |
| 2026-05-09 09:27 | 27.04109 | 31.01928 | 786 ft | 35 kts | 325° |
| 2026-05-09 09:27 | 27.04262 | 31.01711 | 782 ft | 36 kts | 324° |
| 2026-05-09 09:27 | 27.04408 | 31.01502 | 787 ft | 30 kts | 322° |
| 2026-05-09 09:28 | 27.04500 | 31.01369 | 785 ft | 12 kts | 353° |
| 2026-05-09 09:28 | 27.04570 | 31.01319 | 782 ft | 15 kts | 32° |
| 2026-05-09 09:28 | 27.04648 | 31.01319 | 771 ft | 15 kts | 51° |
| 2026-05-09 09:28 | 27.04749 | 31.01414 | 770 ft | 24 kts | 1° |
| 2026-05-09 09:29 | 27.04898 | 31.01550 | 781 ft | 19 kts | 336° |
| 2026-05-09 09:29 | 27.05020 | 31.01389 | 759 ft | 20 kts | 317° |
| 2026-05-09 09:29 | 27.05068 | 31.01317 | 752 ft | 11 kts | 8° |
| 2026-05-09 09:29 | 27.05177 | 31.01239 | 782 ft | 19 kts | 331° |
| 2026-05-09 09:30 | 27.05170 | 31.01189 | 750 ft | 11 kts | 142° |
| 2026-05-09 09:30 | 27.05099 | 31.01258 | 752 ft | 13 kts | 79° |
| 2026-05-09 09:30 | 27.05057 | 31.01339 | 751 ft | 16 kts | 79° |
| 2026-05-09 09:30 | 27.05033 | 31.01416 | 751 ft | 3 kts | 67° |
| 2026-05-09 09:31 | 27.05043 | 31.01454 | 751 ft | 2 kts | 53° |
| 2026-05-09 09:31 | 27.05056 | 31.01469 | 747 ft | 4 kts | 55° |
| 2026-05-09 09:31 | 27.05058 | 31.01471 | 747 ft | 0 kts | 49° |